Messwerte Lamezia Terme

Temperatur

Temperatur
°C
1582261200 6.00 6.00 0
1582264800 7.00 7.00 0
1582268400 8.00 8.00
1582272000 9.00 9.00
1582275600 10.00 10.00 14
1582279200 11.00 11.00 14
1582282800 12.00 12.00 14
1582286400 13.00 13.00 15
1582290000 14.00 14.00 15
1582293600 15.00 15.00 14
1582297200 16.00 16.00 14
1582300800 17.00 17.00 14
1582304400 18.00 18.00 13
1582308000 19.00 19.00 12
1582311600 20.00 20.00 12
1582315200 21.00 21.00
1582318800 22.00 22.00
1582322400 23.00 23.00
1582326000 0.00 0.00 9
1582329600 1.00 1.00 6
1582333200 2.00 2.00 5
1582336800 3.00 3.00 4
1582340400 4.00 4.00 4
1582344000 5.00 5.00 4

Aktuellste Messwerte

Wettercharakter
Wetter: meist klar
Temperatur
4 °C
Feuchtigkeit
100 %
Wind
5 km/hWindrichtung: Ost
Luftdruck
1026 hPa
Messzeit: 22. Februar 2020, 6.00Datenquelle: METAR

Weitere Messstationen in der Nähe

Messstation Temperatur Entfernung
Monte Scuro -2 °C 50 km
Crotone - 72 km
Messina 12 °C 99 km
Reggio di Calabria 9 °C 106 km
Marina Ginosa 7 °C 178 km
Catania 1 °C 190 km
Catania 2 °C 203 km

Wind

Windrichtung Böen Mittelwind
° km/h km/h
1582261200 6.00 5.00 - 6.00 60° 10
1582264800 7.00 6.00 - 7.00 70° 10
1582268400 8.00 7.00 - 8.00
1582272000 9.00 8.00 - 9.00
1582275600 10.00 9.00 - 10.00 230° 15
1582279200 11.00 10.00 - 11.00 240° 25
1582282800 12.00 11.00 - 12.00 250° 25
1582286400 13.00 12.00 - 13.00 260° 30
1582290000 14.00 13.00 - 14.00 260° 30
1582293600 15.00 14.00 - 15.00 250° 30
1582297200 16.00 15.00 - 16.00 260° 20
1582300800 17.00 16.00 - 17.00 250° 20
1582304400 18.00 17.00 - 18.00 250° 20
1582308000 19.00 18.00 - 19.00 250° 10
1582311600 20.00 19.00 - 20.00 240° 5
1582315200 21.00 20.00 - 21.00
1582318800 22.00 21.00 - 22.00
1582322400 23.00 22.00 - 23.00
1582326000 0.00 23.00 - 0.00 200° 5
1582329600 1.00 0.00 - 1.00 60° 5
1582333200 2.00 1.00 - 2.00 5
1582336800 3.00 2.00 - 3.00 70° 5
1582340400 4.00 3.00 - 4.00 80° 5
1582344000 5.00 4.00 - 5.00 80° 10

Ihre Wetterstation

Fehlt Ihre Wetterstation auf unserem Portal?

Schreiben Sie an network@meteonews.ch

Klima

Wann ist es am wärmsten? Wann regnet es am wenigsten? Unsere Klimadaten geben Auskunft.